sensor_id;sensor_type;location;lat;lon;timestamp;P1;durP1;ratioP1;P2;durP2;ratioP2
13244;SDS011;6689;53.400;12.486;2022-07-22T00:02:09;8.10;;;7.38;;
13244;SDS011;6689;53.400;12.486;2022-07-22T00:07:45;10.23;;;7.55;;
13244;SDS011;6689;53.400;12.486;2022-07-22T00:10:26;8.65;;;7.85;;
13244;SDS011;6689;53.400;12.486;2022-07-22T00:13:07;7.90;;;7.15;;
13244;SDS011;6689;53.400;12.486;2022-07-22T00:15:34;9.13;;;7.50;;
13244;SDS011;6689;53.400;12.486;2022-07-22T00:18:15;8.32;;;7.53;;
13244;SDS011;6689;53.400;12.486;2022-07-22T00:20:59;9.20;;;7.55;;
13244;SDS011;6689;53.400;12.486;2022-07-22T00:23:40;7.05;;;6.35;;
13244;SDS011;6689;53.400;12.486;2022-07-22T00:26:09;8.25;;;7.55;;
13244;SDS011;6689;53.400;12.486;2022-07-22T00:28:40;10.25;;;8.10;;
13244;SDS011;6689;53.400;12.486;2022-07-22T00:31:21;9.68;;;8.35;;
13244;SDS011;6689;53.400;12.486;2022-07-22T00:34:01;9.57;;;8.70;;
13244;SDS011;6689;53.400;12.486;2022-07-22T00:39:36;9.60;;;8.70;;
13244;SDS011;6689;53.400;12.486;2022-07-22T00:42:05;10.15;;;8.70;;
13244;SDS011;6689;53.400;12.486;2022-07-22T00:44:36;8.90;;;8.05;;
13244;SDS011;6689;53.400;12.486;2022-07-22T00:47:05;8.48;;;7.68;;
13244;SDS011;6689;53.400;12.486;2022-07-22T00:49:46;10.80;;;9.63;;
13244;SDS011;6689;53.400;12.486;2022-07-22T00:52:14;12.10;;;9.40;;
13244;SDS011;6689;53.400;12.486;2022-07-22T00:55:05;9.63;;;8.73;;
13244;SDS011;6689;53.400;12.486;2022-07-22T00:57:40;9.85;;;8.60;;
13244;SDS011;6689;53.400;12.486;2022-07-22T01:02:45;10.88;;;9.88;;
13244;SDS011;6689;53.400;12.486;2022-07-22T01:05:16;9.88;;;8.88;;
13244;SDS011;6689;53.400;12.486;2022-07-22T01:07:45;13.25;;;9.65;;
13244;SDS011;6689;53.400;12.486;2022-07-22T01:10:31;11.05;;;10.02;;
13244;SDS011;6689;53.400;12.486;2022-07-22T01:13:12;9.38;;;8.45;;
13244;SDS011;6689;53.400;12.486;2022-07-22T01:15:52;10.25;;;9.23;;
13244;SDS011;6689;53.400;12.486;2022-07-22T01:18:33;10.27;;;9.25;;
13244;SDS011;6689;53.400;12.486;2022-07-22T01:21:21;10.07;;;9.10;;
13244;SDS011;6689;53.400;12.486;2022-07-22T01:23:56;11.18;;;9.95;;
13244;SDS011;6689;53.400;12.486;2022-07-22T01:26:36;10.63;;;9.52;;
13244;SDS011;6689;53.400;12.486;2022-07-22T01:29:17;10.23;;;9.32;;
13244;SDS011;6689;53.400;12.486;2022-07-22T01:31:58;11.20;;;10.15;;
13244;SDS011;6689;53.400;12.486;2022-07-22T01:34:25;12.02;;;10.82;;
13244;SDS011;6689;53.400;12.486;2022-07-22T01:40:11;11.75;;;10.65;;
13244;SDS011;6689;53.400;12.486;2022-07-22T01:42:46;12.38;;;10.98;;
13244;SDS011;6689;53.400;12.486;2022-07-22T01:45:17;11.45;;;10.45;;
13244;SDS011;6689;53.400;12.486;2022-07-22T01:47:51;12.07;;;10.90;;
13244;SDS011;6689;53.400;12.486;2022-07-22T01:50:26;11.50;;;10.40;;
13244;SDS011;6689;53.400;12.486;2022-07-22T01:53:07;12.07;;;10.75;;
13244;SDS011;6689;53.400;12.486;2022-07-22T01:55:46;11.45;;;10.45;;
13244;SDS011;6689;53.400;12.486;2022-07-22T01:58:21;11.32;;;10.27;;
13244;SDS011;6689;53.400;12.486;2022-07-22T02:01:02;11.15;;;10.05;;
13244;SDS011;6689;53.400;12.486;2022-07-22T02:03:33;11.88;;;10.80;;
13244;SDS011;6689;53.400;12.486;2022-07-22T02:06:00;10.88;;;9.52;;
13244;SDS011;6689;53.400;12.486;2022-07-22T02:08:31;11.60;;;10.40;;
13244;SDS011;6689;53.400;12.486;2022-07-22T02:14:21;10.95;;;9.88;;
13244;SDS011;6689;53.400;12.486;2022-07-22T02:16:56;13.07;;;11.68;;
13244;SDS011;6689;53.400;12.486;2022-07-22T02:19:26;11.95;;;10.85;;
13244;SDS011;6689;53.400;12.486;2022-07-22T02:22:01;15.70;;;11.27;;
13244;SDS011;6689;53.400;12.486;2022-07-22T02:24:32;12.43;;;11.40;;
13244;SDS011;6689;53.400;12.486;2022-07-22T02:27:01;12.07;;;11.07;;
13244;SDS011;6689;53.400;12.486;2022-07-22T02:29:42;21.45;;;11.85;;
13244;SDS011;6689;53.400;12.486;2022-07-22T02:32:23;12.82;;;11.63;;
13244;SDS011;6689;53.400;12.486;2022-07-22T02:34:57;12.85;;;11.57;;
13244;SDS011;6689;53.400;12.486;2022-07-22T02:37:32;12.25;;;11.05;;
13244;SDS011;6689;53.400;12.486;2022-07-22T02:40:13;12.95;;;11.50;;
13244;SDS011;6689;53.400;12.486;2022-07-22T02:42:53;14.00;;;11.10;;
13244;SDS011;6689;53.400;12.486;2022-07-22T02:48:22;12.77;;;11.52;;
13244;SDS011;6689;53.400;12.486;2022-07-22T02:51:03;13.18;;;12.02;;
13244;SDS011;6689;53.400;12.486;2022-07-22T02:53:31;14.48;;;13.07;;
13244;SDS011;6689;53.400;12.486;2022-07-22T02:56:02;14.25;;;12.95;;
13244;SDS011;6689;53.400;12.486;2022-07-22T02:58:38;14.02;;;12.63;;
13244;SDS011;6689;53.400;12.486;2022-07-22T03:04:07;13.40;;;12.10;;
13244;SDS011;6689;53.400;12.486;2022-07-22T03:06:42;14.20;;;12.57;;
13244;SDS011;6689;53.400;12.486;2022-07-22T03:09:23;12.15;;;10.77;;
13244;SDS011;6689;53.400;12.486;2022-07-22T03:12:04;12.77;;;11.50;;
13244;SDS011;6689;53.400;12.486;2022-07-22T03:14:44;12.82;;;11.55;;
13244;SDS011;6689;53.400;12.486;2022-07-22T03:17:28;11.32;;;10.18;;
13244;SDS011;6689;53.400;12.486;2022-07-22T03:20:09;13.30;;;11.82;;
13244;SDS011;6689;53.400;12.486;2022-07-22T03:22:51;11.05;;;9.57;;
13244;SDS011;6689;53.400;12.486;2022-07-22T03:25:18;11.48;;;10.40;;
13244;SDS011;6689;53.400;12.486;2022-07-22T03:27:52;11.52;;;10.43;;
13244;SDS011;6689;53.400;12.486;2022-07-22T03:30:33;11.45;;;10.35;;
13244;SDS011;6689;53.400;12.486;2022-07-22T03:33:23;11.00;;;9.93;;
13244;SDS011;6689;53.400;12.486;2022-07-22T03:36:04;11.27;;;10.20;;
13244;SDS011;6689;53.400;12.486;2022-07-22T03:38:45;12.20;;;11.00;;
13244;SDS011;6689;53.400;12.486;2022-07-22T03:41:13;11.75;;;10.65;;
13244;SDS011;6689;53.400;12.486;2022-07-22T03:43:54;11.75;;;10.55;;
13244;SDS011;6689;53.400;12.486;2022-07-22T03:46:34;11.60;;;10.43;;
13244;SDS011;6689;53.400;12.486;2022-07-22T03:49:08;12.20;;;11.00;;
13244;SDS011;6689;53.400;12.486;2022-07-22T03:51:39;11.73;;;10.52;;
13244;SDS011;6689;53.400;12.486;2022-07-22T03:54:13;19.13;;;12.00;;
13244;SDS011;6689;53.400;12.486;2022-07-22T03:56:54;12.23;;;10.52;;
13244;SDS011;6689;53.400;12.486;2022-07-22T03:59:29;12.48;;;11.27;;
13244;SDS011;6689;53.400;12.486;2022-07-22T04:02:09;12.02;;;10.82;;
13244;SDS011;6689;53.400;12.486;2022-07-22T04:04:39;12.38;;;10.82;;
13244;SDS011;6689;53.400;12.486;2022-07-22T04:07:08;12.75;;;11.48;;
13244;SDS011;6689;53.400;12.486;2022-07-22T04:09:49;13.65;;;12.32;;
13244;SDS011;6689;53.400;12.486;2022-07-22T04:12:30;13.52;;;12.20;;
13244;SDS011;6689;53.400;12.486;2022-07-22T04:14:58;12.65;;;11.45;;
13244;SDS011;6689;53.400;12.486;2022-07-22T04:17:29;12.10;;;11.00;;
13244;SDS011;6689;53.400;12.486;2022-07-22T04:22:54;12.57;;;11.35;;
13244;SDS011;6689;53.400;12.486;2022-07-22T04:25:35;12.35;;;11.25;;
13244;SDS011;6689;53.400;12.486;2022-07-22T04:28:16;13.15;;;11.85;;
13244;SDS011;6689;53.400;12.486;2022-07-22T04:30:44;12.77;;;11.35;;
13244;SDS011;6689;53.400;12.486;2022-07-22T04:33:19;12.85;;;11.63;;
13244;SDS011;6689;53.400;12.486;2022-07-22T04:39:05;14.57;;;13.23;;
13244;SDS011;6689;53.400;12.486;2022-07-22T04:41:45;14.30;;;12.95;;
13244;SDS011;6689;53.400;12.486;2022-07-22T04:44:14;15.77;;;14.27;;
13244;SDS011;6689;53.400;12.486;2022-07-22T04:46:55;13.63;;;12.52;;
13244;SDS011;6689;53.400;12.486;2022-07-22T04:49:36;13.50;;;12.38;;
13244;SDS011;6689;53.400;12.486;2022-07-22T04:52:20;13.57;;;12.07;;
13244;SDS011;6689;53.400;12.486;2022-07-22T04:54:50;13.25;;;11.95;;
13244;SDS011;6689;53.400;12.486;2022-07-22T04:57:25;12.93;;;11.45;;
13244;SDS011;6689;53.400;12.486;2022-07-22T04:59:59;14.85;;;11.30;;
13244;SDS011;6689;53.400;12.486;2022-07-22T05:02:40;12.82;;;11.52;;
13244;SDS011;6689;53.400;12.486;2022-07-22T05:05:21;14.55;;;11.82;;
13244;SDS011;6689;53.400;12.486;2022-07-22T05:08:06;13.27;;;11.93;;
13244;SDS011;6689;53.400;12.486;2022-07-22T05:10:40;13.93;;;12.52;;
13244;SDS011;6689;53.400;12.486;2022-07-22T05:13:21;14.02;;;12.48;;
13244;SDS011;6689;53.400;12.486;2022-07-22T05:15:49;12.98;;;11.77;;
13244;SDS011;6689;53.400;12.486;2022-07-22T05:18:20;13.30;;;12.02;;
13244;SDS011;6689;53.400;12.486;2022-07-22T05:21:01;14.95;;;13.65;;
13244;SDS011;6689;53.400;12.486;2022-07-22T05:26:35;13.25;;;12.05;;
13244;SDS011;6689;53.400;12.486;2022-07-22T05:29:16;13.95;;;12.70;;
13244;SDS011;6689;53.400;12.486;2022-07-22T05:31:57;15.45;;;13.95;;
13244;SDS011;6689;53.400;12.486;2022-07-22T05:34:25;15.52;;;13.60;;
13244;SDS011;6689;53.400;12.486;2022-07-22T05:37:01;15.45;;;13.88;;
13244;SDS011;6689;53.400;12.486;2022-07-22T05:39:30;14.75;;;13.27;;
13244;SDS011;6689;53.400;12.486;2022-07-22T05:44:55;19.33;;;15.27;;
13244;SDS011;6689;53.400;12.486;2022-07-22T05:47:36;18.15;;;16.52;;
13244;SDS011;6689;53.400;12.486;2022-07-22T05:50:07;19.15;;;16.15;;
13244;SDS011;6689;53.400;12.486;2022-07-22T05:52:36;18.83;;;16.70;;
13244;SDS011;6689;53.400;12.486;2022-07-22T05:55:07;18.80;;;17.00;;
13244;SDS011;6689;53.400;12.486;2022-07-22T06:00:36;17.13;;;15.48;;
13244;SDS011;6689;53.400;12.486;2022-07-22T06:03:11;18.70;;;16.90;;
13244;SDS011;6689;53.400;12.486;2022-07-22T06:05:41;19.17;;;17.23;;
13244;SDS011;6689;53.400;12.486;2022-07-22T06:08:11;18.65;;;16.63;;
13244;SDS011;6689;53.400;12.486;2022-07-22T06:10:41;17.60;;;15.95;;
13244;SDS011;6689;53.400;12.486;2022-07-22T06:16:31;18.33;;;16.63;;
13244;SDS011;6689;53.400;12.486;2022-07-22T06:19:01;17.63;;;15.82;;
13244;SDS011;6689;53.400;12.486;2022-07-22T06:21:35;15.55;;;14.05;;
13244;SDS011;6689;53.400;12.486;2022-07-22T06:24:06;17.02;;;15.35;;
13244;SDS011;6689;53.400;12.486;2022-07-22T06:26:47;16.98;;;15.32;;
13244;SDS011;6689;53.400;12.486;2022-07-22T06:29:16;16.42;;;14.95;;
13244;SDS011;6689;53.400;12.486;2022-07-22T06:31:56;15.77;;;14.15;;
13244;SDS011;6689;53.400;12.486;2022-07-22T06:34:31;14.77;;;13.38;;
13244;SDS011;6689;53.400;12.486;2022-07-22T06:37:01;9.35;;;8.45;;
13244;SDS011;6689;53.400;12.486;2022-07-22T06:39:36;6.32;;;5.72;;
13244;SDS011;6689;53.400;12.486;2022-07-22T06:42:11;6.28;;;4.00;;
13244;SDS011;6689;53.400;12.486;2022-07-22T06:44:47;5.03;;;2.10;;
13244;SDS011;6689;53.400;12.486;2022-07-22T06:47:21;3.22;;;2.92;;
13244;SDS011;6689;53.400;12.486;2022-07-22T06:50:02;3.42;;;1.95;;
13244;SDS011;6689;53.400;12.486;2022-07-22T06:52:31;1.95;;;1.50;;
13244;SDS011;6689;53.400;12.486;2022-07-22T06:55:06;2.05;;;1.45;;
13244;SDS011;6689;53.400;12.486;2022-07-22T06:57:36;1.70;;;1.30;;
13244;SDS011;6689;53.400;12.486;2022-07-22T07:00:17;3.80;;;1.38;;
13244;SDS011;6689;53.400;12.486;2022-07-22T07:05:42;2.00;;;1.60;;
13244;SDS011;6689;53.400;12.486;2022-07-22T07:08:10;2.67;;;1.42;;
13244;SDS011;6689;53.400;12.486;2022-07-22T07:10:41;1.65;;;1.40;;
13244;SDS011;6689;53.400;12.486;2022-07-22T07:13:22;2.35;;;1.65;;
13244;SDS011;6689;53.400;12.486;2022-07-22T07:16:03;2.15;;;1.60;;
13244;SDS011;6689;53.400;12.486;2022-07-22T07:18:33;2.45;;;1.70;;
13244;SDS011;6689;53.400;12.486;2022-07-22T07:21:15;4.05;;;2.40;;
13244;SDS011;6689;53.400;12.486;2022-07-22T07:23:56;3.85;;;1.77;;
13244;SDS011;6689;53.400;12.486;2022-07-22T07:26:38;3.90;;;2.88;;
13244;SDS011;6689;53.400;12.486;2022-07-22T07:29:07;4.40;;;2.13;;
13244;SDS011;6689;53.400;12.486;2022-07-22T07:31:42;2.72;;;2.00;;
13244;SDS011;6689;53.400;12.486;2022-07-22T07:34:12;3.40;;;1.85;;
13244;SDS011;6689;53.400;12.486;2022-07-22T07:36:53;3.75;;;2.33;;
13244;SDS011;6689;53.400;12.486;2022-07-22T07:39:34;3.58;;;2.13;;
13244;SDS011;6689;53.400;12.486;2022-07-22T07:42:03;2.95;;;1.90;;
13244;SDS011;6689;53.400;12.486;2022-07-22T07:44:44;7.28;;;2.60;;
13244;SDS011;6689;53.400;12.486;2022-07-22T07:47:25;5.60;;;2.70;;
13244;SDS011;6689;53.400;12.486;2022-07-22T07:53:08;5.07;;;2.85;;
13244;SDS011;6689;53.400;12.486;2022-07-22T07:55:49;5.70;;;2.80;;
13244;SDS011;6689;53.400;12.486;2022-07-22T07:58:17;7.40;;;2.65;;
13244;SDS011;6689;53.400;12.486;2022-07-22T08:00:57;6.40;;;2.80;;
13244;SDS011;6689;53.400;12.486;2022-07-22T08:03:32;7.18;;;2.63;;
13244;SDS011;6689;53.400;12.486;2022-07-22T08:06:03;5.80;;;2.85;;
13244;SDS011;6689;53.400;12.486;2022-07-22T08:08:33;7.95;;;3.33;;
13244;SDS011;6689;53.400;12.486;2022-07-22T08:11:08;5.63;;;2.50;;
13244;SDS011;6689;53.400;12.486;2022-07-22T08:13:43;4.38;;;2.38;;
13244;SDS011;6689;53.400;12.486;2022-07-22T08:16:17;6.15;;;3.65;;
13244;SDS011;6689;53.400;12.486;2022-07-22T08:18:48;7.55;;;2.67;;
13244;SDS011;6689;53.400;12.486;2022-07-22T08:21:29;5.82;;;2.75;;
13244;SDS011;6689;53.400;12.486;2022-07-22T08:24:13;4.82;;;3.10;;
13244;SDS011;6689;53.400;12.486;2022-07-22T08:26:54;7.90;;;2.88;;
13244;SDS011;6689;53.400;12.486;2022-07-22T08:29:28;7.88;;;2.80;;
13244;SDS011;6689;53.400;12.486;2022-07-22T08:32:09;7.88;;;2.90;;
13244;SDS011;6689;53.400;12.486;2022-07-22T08:34:50;7.05;;;2.72;;
13244;SDS011;6689;53.400;12.486;2022-07-22T08:37:18;5.28;;;2.83;;
13244;SDS011;6689;53.400;12.486;2022-07-22T08:43:18;9.65;;;3.08;;
13244;SDS011;6689;53.400;12.486;2022-07-22T08:45:59;9.23;;;2.85;;
13244;SDS011;6689;53.400;12.486;2022-07-22T08:48:27;6.40;;;3.28;;
13244;SDS011;6689;53.400;12.486;2022-07-22T08:51:08;10.35;;;3.30;;
13244;SDS011;6689;53.400;12.486;2022-07-22T08:53:49;8.15;;;3.10;;
13244;SDS011;6689;53.400;12.486;2022-07-22T08:56:30;7.40;;;2.85;;
13244;SDS011;6689;53.400;12.486;2022-07-22T09:02:13;8.80;;;2.50;;
13244;SDS011;6689;53.400;12.486;2022-07-22T09:04:55;3.88;;;2.40;;
13244;SDS011;6689;53.400;12.486;2022-07-22T09:07:38;6.90;;;2.55;;
13244;SDS011;6689;53.400;12.486;2022-07-22T09:10:09;6.03;;;2.40;;
13244;SDS011;6689;53.400;12.486;2022-07-22T09:12:49;4.35;;;2.40;;
13244;SDS011;6689;53.400;12.486;2022-07-22T09:15:24;7.07;;;2.58;;
13244;SDS011;6689;53.400;12.486;2022-07-22T09:17:54;5.22;;;2.25;;
13244;SDS011;6689;53.400;12.486;2022-07-22T09:20:24;6.05;;;2.92;;
13244;SDS011;6689;53.400;12.486;2022-07-22T09:23:09;4.43;;;2.58;;
13244;SDS011;6689;53.400;12.486;2022-07-22T09:25:39;4.07;;;2.15;;
13244;SDS011;6689;53.400;12.486;2022-07-22T09:28:15;5.13;;;2.25;;
13244;SDS011;6689;53.400;12.486;2022-07-22T09:30:53;7.30;;;2.20;;
13244;SDS011;6689;53.400;12.486;2022-07-22T09:33:34;5.25;;;2.53;;
13244;SDS011;6689;53.400;12.486;2022-07-22T09:36:15;4.75;;;2.30;;
13244;SDS011;6689;53.400;12.486;2022-07-22T09:38:55;5.72;;;2.97;;
13244;SDS011;6689;53.400;12.486;2022-07-22T09:41:24;7.60;;;3.33;;
13244;SDS011;6689;53.400;12.486;2022-07-22T09:44:19;7.45;;;3.10;;
13244;SDS011;6689;53.400;12.486;2022-07-22T09:47:01;4.35;;;2.42;;
13244;SDS011;6689;53.400;12.486;2022-07-22T09:49:38;7.95;;;3.53;;
13244;SDS011;6689;53.400;12.486;2022-07-22T09:52:19;9.43;;;4.07;;
13244;SDS011;6689;53.400;12.486;2022-07-22T09:54:48;6.00;;;2.80;;
13244;SDS011;6689;53.400;12.486;2022-07-22T09:57:16;5.25;;;3.42;;
13244;SDS011;6689;53.400;12.486;2022-07-22T09:59:49;7.72;;;3.45;;
13244;SDS011;6689;53.400;12.486;2022-07-22T10:02:19;7.72;;;5.47;;
13244;SDS011;6689;53.400;12.486;2022-07-22T10:05:04;6.07;;;3.30;;
13244;SDS011;6689;53.400;12.486;2022-07-22T10:07:45;7.22;;;3.78;;
13244;SDS011;6689;53.400;12.486;2022-07-22T10:10:14;7.35;;;3.83;;
13244;SDS011;6689;53.400;12.486;2022-07-22T10:12:58;5.97;;;3.33;;
13244;SDS011;6689;53.400;12.486;2022-07-22T10:15:34;6.25;;;4.13;;
13244;SDS011;6689;53.400;12.486;2022-07-22T10:18:16;8.60;;;4.10;;
13244;SDS011;6689;53.400;12.486;2022-07-22T10:21:05;7.38;;;4.28;;
13244;SDS011;6689;53.400;12.486;2022-07-22T10:23:34;7.72;;;4.28;;
13244;SDS011;6689;53.400;12.486;2022-07-22T10:26:04;5.90;;;4.28;;
13244;SDS011;6689;53.400;12.486;2022-07-22T10:28:45;7.13;;;4.35;;
13244;SDS011;6689;53.400;12.486;2022-07-22T10:31:20;11.48;;;3.95;;
13244;SDS011;6689;53.400;12.486;2022-07-22T10:33:50;7.72;;;4.20;;
13244;SDS011;6689;53.400;12.486;2022-07-22T10:39:15;8.20;;;4.47;;
13244;SDS011;6689;53.400;12.486;2022-07-22T10:41:56;7.30;;;4.25;;
13244;SDS011;6689;53.400;12.486;2022-07-22T10:47:14;12.48;;;4.65;;
13244;SDS011;6689;53.400;12.486;2022-07-22T10:49:45;9.48;;;4.25;;
13244;SDS011;6689;53.400;12.486;2022-07-22T10:52:31;7.80;;;4.03;;
13244;SDS011;6689;53.400;12.486;2022-07-22T10:55:21;7.23;;;4.20;;
13244;SDS011;6689;53.400;12.486;2022-07-22T10:57:49;9.20;;;4.38;;
13244;SDS011;6689;53.400;12.486;2022-07-22T11:00:30;6.28;;;3.80;;
13244;SDS011;6689;53.400;12.486;2022-07-22T11:03:04;8.70;;;3.75;;
13244;SDS011;6689;53.400;12.486;2022-07-22T11:05:35;9.35;;;4.15;;
13244;SDS011;6689;53.400;12.486;2022-07-22T11:08:09;8.68;;;4.20;;
13244;SDS011;6689;53.400;12.486;2022-07-22T11:10:46;11.55;;;3.22;;
13244;SDS011;6689;53.400;12.486;2022-07-22T11:13:29;10.63;;;3.45;;
13244;SDS011;6689;53.400;12.486;2022-07-22T11:16:15;7.28;;;3.88;;
13244;SDS011;6689;53.400;12.486;2022-07-22T11:18:51;9.60;;;5.10;;
13244;SDS011;6689;53.400;12.486;2022-07-22T11:21:22;9.43;;;4.38;;
13244;SDS011;6689;53.400;12.486;2022-07-22T11:23:53;5.78;;;4.20;;
13244;SDS011;6689;53.400;12.486;2022-07-22T11:26:37;8.70;;;3.88;;
13244;SDS011;6689;53.400;12.486;2022-07-22T11:29:10;8.68;;;3.55;;
13244;SDS011;6689;53.400;12.486;2022-07-22T11:31:58;10.55;;;3.40;;
13244;SDS011;6689;53.400;12.486;2022-07-22T11:34:30;7.97;;;3.60;;
13244;SDS011;6689;53.400;12.486;2022-07-22T11:37:12;8.43;;;3.95;;
13244;SDS011;6689;53.400;12.486;2022-07-22T11:39:50;5.40;;;3.65;;
13244;SDS011;6689;53.400;12.486;2022-07-22T11:42:24;4.05;;;3.55;;
13244;SDS011;6689;53.400;12.486;2022-07-22T11:45:05;6.43;;;4.07;;
13244;SDS011;6689;53.400;12.486;2022-07-22T11:47:34;7.35;;;3.55;;
13244;SDS011;6689;53.400;12.486;2022-07-22T11:50:06;8.35;;;3.67;;
13244;SDS011;6689;53.400;12.486;2022-07-22T11:52:34;5.63;;;3.85;;
13244;SDS011;6689;53.400;12.486;2022-07-22T11:55:20;6.88;;;3.65;;
13244;SDS011;6689;53.400;12.486;2022-07-22T11:58:01;5.95;;;3.60;;
13244;SDS011;6689;53.400;12.486;2022-07-22T12:00:45;6.55;;;3.42;;
13244;SDS011;6689;53.400;12.486;2022-07-22T12:03:26;5.55;;;3.10;;
13244;SDS011;6689;53.400;12.486;2022-07-22T12:06:07;6.20;;;3.47;;
13244;SDS011;6689;53.400;12.486;2022-07-22T12:08:52;8.05;;;3.50;;
13244;SDS011;6689;53.400;12.486;2022-07-22T12:11:30;7.32;;;3.75;;
13244;SDS011;6689;53.400;12.486;2022-07-22T12:14:06;6.43;;;4.68;;
13244;SDS011;6689;53.400;12.486;2022-07-22T12:16:38;8.32;;;4.57;;
13244;SDS011;6689;53.400;12.486;2022-07-22T12:19:11;9.98;;;5.25;;
13244;SDS011;6689;53.400;12.486;2022-07-22T12:21:49;13.45;;;4.95;;
13244;SDS011;6689;53.400;12.486;2022-07-22T12:24:26;13.98;;;5.00;;
13244;SDS011;6689;53.400;12.486;2022-07-22T12:30:21;11.82;;;5.45;;
13244;SDS011;6689;53.400;12.486;2022-07-22T12:32:50;8.00;;;5.22;;
13244;SDS011;6689;53.400;12.486;2022-07-22T12:35:31;8.93;;;6.10;;
13244;SDS011;6689;53.400;12.486;2022-07-22T12:38:06;15.38;;;4.70;;
13244;SDS011;6689;53.400;12.486;2022-07-22T12:40:36;7.43;;;4.95;;
13244;SDS011;6689;53.400;12.486;2022-07-22T12:43:21;6.50;;;4.45;;
13244;SDS011;6689;53.400;12.486;2022-07-22T12:45:58;7.03;;;3.90;;
13244;SDS011;6689;53.400;12.486;2022-07-22T12:48:32;9.38;;;3.97;;
13244;SDS011;6689;53.400;12.486;2022-07-22T12:51:13;7.10;;;3.70;;
13244;SDS011;6689;53.400;12.486;2022-07-22T12:53:54;9.57;;;3.67;;
13244;SDS011;6689;53.400;12.486;2022-07-22T12:56:21;6.82;;;3.22;;
13244;SDS011;6689;53.400;12.486;2022-07-22T12:59:02;7.57;;;3.55;;
13244;SDS011;6689;53.400;12.486;2022-07-22T13:04:47;5.43;;;3.30;;
13244;SDS011;6689;53.400;12.486;2022-07-22T13:07:28;9.40;;;4.45;;
13244;SDS011;6689;53.400;12.486;2022-07-22T13:10:09;9.15;;;3.85;;
13244;SDS011;6689;53.400;12.486;2022-07-22T13:12:51;5.53;;;3.75;;
13244;SDS011;6689;53.400;12.486;2022-07-22T13:15:21;7.72;;;3.78;;
13244;SDS011;6689;53.400;12.486;2022-07-22T13:18:06;6.95;;;3.72;;
13244;SDS011;6689;53.400;12.486;2022-07-22T13:20:47;7.30;;;3.50;;
13244;SDS011;6689;53.400;12.486;2022-07-22T13:23:28;6.47;;;3.20;;
13244;SDS011;6689;53.400;12.486;2022-07-22T13:26:09;6.43;;;3.30;;
13244;SDS011;6689;53.400;12.486;2022-07-22T13:28:50;9.50;;;3.55;;
13244;SDS011;6689;53.400;12.486;2022-07-22T13:31:31;4.43;;;3.10;;
13244;SDS011;6689;53.400;12.486;2022-07-22T13:37:11;6.88;;;2.83;;
13244;SDS011;6689;53.400;12.486;2022-07-22T13:39:52;7.10;;;3.30;;
13244;SDS011;6689;53.400;12.486;2022-07-22T13:42:21;9.48;;;3.58;;
13244;SDS011;6689;53.400;12.486;2022-07-22T13:45:02;9.90;;;3.40;;
13244;SDS011;6689;53.400;12.486;2022-07-22T13:47:38;8.93;;;3.72;;
13244;SDS011;6689;53.400;12.486;2022-07-22T13:53:01;5.22;;;2.63;;
13244;SDS011;6689;53.400;12.486;2022-07-22T13:55:39;8.15;;;3.78;;
13244;SDS011;6689;53.400;12.486;2022-07-22T13:58:07;4.28;;;2.45;;
13244;SDS011;6689;53.400;12.486;2022-07-22T14:00:36;8.20;;;3.00;;
13244;SDS011;6689;53.400;12.486;2022-07-22T14:03:06;4.30;;;3.10;;
13244;SDS011;6689;53.400;12.486;2022-07-22T14:05:52;12.35;;;3.70;;
13244;SDS011;6689;53.400;12.486;2022-07-22T14:08:32;4.70;;;2.90;;
13244;SDS011;6689;53.400;12.486;2022-07-22T14:11:07;5.20;;;3.25;;
13244;SDS011;6689;53.400;12.486;2022-07-22T14:13:36;4.80;;;2.50;;
13244;SDS011;6689;53.400;12.486;2022-07-22T14:16:04;5.25;;;2.80;;
13244;SDS011;6689;53.400;12.486;2022-07-22T14:18:46;5.90;;;2.70;;
13244;SDS011;6689;53.400;12.486;2022-07-22T14:21:15;3.58;;;2.38;;
13244;SDS011;6689;53.400;12.486;2022-07-22T14:23:53;9.40;;;3.50;;
13244;SDS011;6689;53.400;12.486;2022-07-22T14:26:28;5.93;;;3.25;;
13244;SDS011;6689;53.400;12.486;2022-07-22T14:29:09;5.82;;;2.65;;
13244;SDS011;6689;53.400;12.486;2022-07-22T14:31:50;6.82;;;2.58;;
13244;SDS011;6689;53.400;12.486;2022-07-22T14:34:18;7.65;;;3.13;;
13244;SDS011;6689;53.400;12.486;2022-07-22T14:37:02;3.72;;;2.30;;
13244;SDS011;6689;53.400;12.486;2022-07-22T14:39:42;5.55;;;2.75;;
13244;SDS011;6689;53.400;12.486;2022-07-22T14:42:12;5.65;;;2.95;;
13244;SDS011;6689;53.400;12.486;2022-07-22T14:44:53;4.50;;;2.53;;
13244;SDS011;6689;53.400;12.486;2022-07-22T14:47:22;5.38;;;2.72;;
13244;SDS011;6689;53.400;12.486;2022-07-22T14:55:28;6.57;;;2.58;;
13244;SDS011;6689;53.400;12.486;2022-07-22T14:57:56;5.13;;;2.53;;
13244;SDS011;6689;53.400;12.486;2022-07-22T15:00:37;7.35;;;2.58;;
13244;SDS011;6689;53.400;12.486;2022-07-22T15:03:08;4.68;;;2.58;;
13244;SDS011;6689;53.400;12.486;2022-07-22T15:05:49;6.18;;;2.40;;
13244;SDS011;6689;53.400;12.486;2022-07-22T15:14:18;9.52;;;2.28;;
13244;SDS011;6689;53.400;12.486;2022-07-22T15:19:27;7.80;;;2.45;;
13244;SDS011;6689;53.400;12.486;2022-07-22T15:24:42;6.25;;;2.45;;
13244;SDS011;6689;53.400;12.486;2022-07-22T15:27:18;5.88;;;2.20;;
13244;SDS011;6689;53.400;12.486;2022-07-22T15:29:53;4.57;;;2.60;;
13244;SDS011;6689;53.400;12.486;2022-07-22T15:32:23;7.60;;;3.00;;
13244;SDS011;6689;53.400;12.486;2022-07-22T15:35:05;5.72;;;2.92;;
13244;SDS011;6689;53.400;12.486;2022-07-22T15:37:34;6.20;;;2.17;;
13244;SDS011;6689;53.400;12.486;2022-07-22T15:40:15;5.45;;;2.33;;
13244;SDS011;6689;53.400;12.486;2022-07-22T15:46:02;5.35;;;2.55;;
13244;SDS011;6689;53.400;12.486;2022-07-22T15:48:43;5.60;;;2.60;;
13244;SDS011;6689;53.400;12.486;2022-07-22T15:51:18;7.40;;;2.40;;
13244;SDS011;6689;53.400;12.486;2022-07-22T15:53:59;3.90;;;2.15;;
13244;SDS011;6689;53.400;12.486;2022-07-22T15:56:40;4.25;;;2.25;;
13244;SDS011;6689;53.400;12.486;2022-07-22T15:59:08;6.57;;;2.75;;
13244;SDS011;6689;53.400;12.486;2022-07-22T16:01:53;4.70;;;2.10;;
13244;SDS011;6689;53.400;12.486;2022-07-22T16:04:22;4.82;;;2.22;;
13244;SDS011;6689;53.400;12.486;2022-07-22T16:07:03;5.85;;;2.50;;
13244;SDS011;6689;53.400;12.486;2022-07-22T16:09:44;6.43;;;2.47;;
13244;SDS011;6689;53.400;12.486;2022-07-22T16:12:25;7.80;;;2.40;;
13244;SDS011;6689;53.400;12.486;2022-07-22T16:14:53;5.55;;;1.92;;
13244;SDS011;6689;53.400;12.486;2022-07-22T16:17:29;6.30;;;2.92;;
13244;SDS011;6689;53.400;12.486;2022-07-22T16:19:58;6.25;;;2.00;;
13244;SDS011;6689;53.400;12.486;2022-07-22T16:22:39;5.78;;;2.38;;
13244;SDS011;6689;53.400;12.486;2022-07-22T16:25:08;5.25;;;2.10;;
13244;SDS011;6689;53.400;12.486;2022-07-22T16:27:43;6.07;;;2.40;;
13244;SDS011;6689;53.400;12.486;2022-07-22T16:30:14;5.80;;;2.45;;
13244;SDS011;6689;53.400;12.486;2022-07-22T16:35:39;4.97;;;1.83;;
13244;SDS011;6689;53.400;12.486;2022-07-22T16:38:08;5.22;;;2.65;;
13244;SDS011;6689;53.400;12.486;2022-07-22T16:40:49;4.53;;;2.03;;
13244;SDS011;6689;53.400;12.486;2022-07-22T16:43:18;6.75;;;2.20;;
13244;SDS011;6689;53.400;12.486;2022-07-22T16:45:59;5.95;;;2.03;;
13244;SDS011;6689;53.400;12.486;2022-07-22T16:51:23;7.63;;;2.03;;
13244;SDS011;6689;53.400;12.486;2022-07-22T16:54:04;5.35;;;2.00;;
13244;SDS011;6689;53.400;12.486;2022-07-22T16:56:38;4.93;;;2.25;;
13244;SDS011;6689;53.400;12.486;2022-07-22T16:59:13;6.15;;;2.35;;
13244;SDS011;6689;53.400;12.486;2022-07-22T17:01:43;5.55;;;2.38;;
13244;SDS011;6689;53.400;12.486;2022-07-22T17:07:30;4.75;;;2.35;;
13244;SDS011;6689;53.400;12.486;2022-07-22T17:09:58;5.03;;;2.30;;